LGAV/ATH METAR and TAF weather

Enter ICAO airport designator
Station Type Date Time Source
LGAV METAR 2020/02/24 07:50 UTC NOAA

LGAV 240750Z VRB02KT CAVOK 13/05 Q1017 NOSIG


Station Type Date Time Source
LGAV Decoded METAR 2020/02/24 07:50 UTC NOAA

Athens Eleftherios Venizelos International Airport, Greece (LGAV) 37-56N 023-56E
Feb 24, 2020 - 02:50 AM EST / 2020.02.24 0750 UTC
Wind: Variable at 2 MPH (2 KT):0
Visibility: greater than 7 mile(s):0
Temperature: 55 F (13 C)
Dew Point: 41 F (5 C)
Relative Humidity: 58%
Pressure (altimeter): 30.03 in. Hg (1017 hPa)
ob: LGAV 240750Z VRB02KT CAVOK 13/05 Q1017 NOSIG
cycle: 8

Station Type Date Time Source
LGAV TAF 2020/02/24 06:12 UTC NOAA

TAF TAF LGAV 240500Z 2406/2506 24008KT 9999 FEW025
BECMG 2418/2420 36010KT

Example: see airport list